sensor_id;sensor_type;location;lat;lon;timestamp;P1;durP1;ratioP1;P2;durP2;ratioP2
3177;SDS011;38141;42.666;23.344;2023-02-28T00:01:14;28.37;;;14.00;;
3177;SDS011;38141;42.666;23.344;2023-02-28T00:03:43;21.40;;;13.33;;
3177;SDS011;38141;42.666;23.344;2023-02-28T00:06:10;25.53;;;13.80;;
3177;SDS011;38141;42.666;23.344;2023-02-28T00:08:37;31.00;;;14.53;;
3177;SDS011;38141;42.666;23.344;2023-02-28T00:11:04;25.53;;;13.63;;
3177;SDS011;38141;42.666;23.344;2023-02-28T00:13:33;22.43;;;13.40;;
3177;SDS011;38141;42.666;23.344;2023-02-28T00:16:03;25.90;;;13.27;;
3177;SDS011;38141;42.666;23.344;2023-02-28T00:18:31;27.57;;;14.97;;
3177;SDS011;38141;42.666;23.344;2023-02-28T00:21:00;30.13;;;15.77;;
3177;SDS011;38141;42.666;23.344;2023-02-28T00:23:27;30.20;;;15.70;;
3177;SDS011;38141;42.666;23.344;2023-02-28T00:25:54;23.57;;;14.77;;
3177;SDS011;38141;42.666;23.344;2023-02-28T00:28:21;27.77;;;13.73;;
3177;SDS011;38141;42.666;23.344;2023-02-28T00:30:48;24.10;;;13.57;;
3177;SDS011;38141;42.666;23.344;2023-02-28T00:33:14;25.83;;;14.20;;
3177;SDS011;38141;42.666;23.344;2023-02-28T00:35:42;27.40;;;13.80;;
3177;SDS011;38141;42.666;23.344;2023-02-28T00:38:12;26.83;;;13.13;;
3177;SDS011;38141;42.666;23.344;2023-02-28T00:40:39;25.73;;;14.50;;
3177;SDS011;38141;42.666;23.344;2023-02-28T00:43:06;25.13;;;13.97;;
3177;SDS011;38141;42.666;23.344;2023-02-28T00:45:33;23.23;;;13.57;;
3177;SDS011;38141;42.666;23.344;2023-02-28T00:48:00;26.03;;;13.70;;
3177;SDS011;38141;42.666;23.344;2023-02-28T00:50:27;26.40;;;14.50;;
3177;SDS011;38141;42.666;23.344;2023-02-28T00:52:53;25.47;;;13.97;;
3177;SDS011;38141;42.666;23.344;2023-02-28T00:55:22;24.47;;;13.93;;
3177;SDS011;38141;42.666;23.344;2023-02-28T00:57:48;21.40;;;12.50;;
3177;SDS011;38141;42.666;23.344;2023-02-28T01:00:15;27.10;;;13.60;;
3177;SDS011;38141;42.666;23.344;2023-02-28T01:02:42;26.30;;;14.20;;
3177;SDS011;38141;42.666;23.344;2023-02-28T01:05:09;25.70;;;14.37;;
3177;SDS011;38141;42.666;23.344;2023-02-28T01:07:35;27.13;;;13.13;;
3177;SDS011;38141;42.666;23.344;2023-02-28T01:10:03;25.67;;;15.20;;
3177;SDS011;38141;42.666;23.344;2023-02-28T01:12:32;28.23;;;15.53;;
3177;SDS011;38141;42.666;23.344;2023-02-28T01:14:59;29.83;;;17.47;;
3177;SDS011;38141;42.666;23.344;2023-02-28T01:17:26;27.73;;;15.47;;
3177;SDS011;38141;42.666;23.344;2023-02-28T01:19:53;29.27;;;15.50;;
3177;SDS011;38141;42.666;23.344;2023-02-28T01:22:23;29.50;;;17.20;;
3177;SDS011;38141;42.666;23.344;2023-02-28T01:24:50;34.87;;;17.30;;
3177;SDS011;38141;42.666;23.344;2023-02-28T01:27:17;31.60;;;16.60;;
3177;SDS011;38141;42.666;23.344;2023-02-28T01:29:45;33.37;;;16.37;;
3177;SDS011;38141;42.666;23.344;2023-02-28T01:32:11;39.40;;;17.67;;
3177;SDS011;38141;42.666;23.344;2023-02-28T01:34:38;30.80;;;17.70;;
3177;SDS011;38141;42.666;23.344;2023-02-28T01:37:05;42.90;;;20.80;;
3177;SDS011;38141;42.666;23.344;2023-02-28T01:39:32;41.77;;;20.93;;
3177;SDS011;38141;42.666;23.344;2023-02-28T01:41:59;30.77;;;17.50;;
3177;SDS011;38141;42.666;23.344;2023-02-28T01:47:31;35.13;;;17.50;;
3177;SDS011;38141;42.666;23.344;2023-02-28T01:50:01;32.40;;;17.37;;
3177;SDS011;38141;42.666;23.344;2023-02-28T01:52:30;35.93;;;17.27;;
3177;SDS011;38141;42.666;23.344;2023-02-28T01:54:59;35.13;;;18.60;;
3177;SDS011;38141;42.666;23.344;2023-02-28T01:57:29;36.67;;;18.87;;
3177;SDS011;38141;42.666;23.344;2023-02-28T02:00:05;36.37;;;18.90;;
3177;SDS011;38141;42.666;23.344;2023-02-28T02:02:35;39.50;;;17.57;;
3177;SDS011;38141;42.666;23.344;2023-02-28T02:05:04;32.50;;;16.90;;
3177;SDS011;38141;42.666;23.344;2023-02-28T02:07:33;36.20;;;18.13;;
3177;SDS011;38141;42.666;23.344;2023-02-28T02:10:04;31.00;;;17.30;;
3177;SDS011;38141;42.666;23.344;2023-02-28T02:12:53;35.37;;;18.03;;
3177;SDS011;38141;42.666;23.344;2023-02-28T02:15:32;33.63;;;16.83;;
3177;SDS011;38141;42.666;23.344;2023-02-28T02:18:03;37.40;;;18.27;;
3177;SDS011;38141;42.666;23.344;2023-02-28T02:27:03;34.30;;;18.90;;
3177;SDS011;38141;42.666;23.344;2023-02-28T02:33:16;33.87;;;18.37;;
3177;SDS011;38141;42.666;23.344;2023-02-28T02:35:56;47.83;;;23.30;;
3177;SDS011;38141;42.666;23.344;2023-02-28T02:38:31;36.37;;;17.50;;
3177;SDS011;38141;42.666;23.344;2023-02-28T02:41:03;38.43;;;19.80;;
3177;SDS011;38141;42.666;23.344;2023-02-28T02:43:35;37.37;;;19.10;;
3177;SDS011;38141;42.666;23.344;2023-02-28T02:46:08;33.53;;;17.00;;
3177;SDS011;38141;42.666;23.344;2023-02-28T02:48:40;37.33;;;17.93;;
3177;SDS011;38141;42.666;23.344;2023-02-28T02:51:13;36.27;;;17.87;;
3177;SDS011;38141;42.666;23.344;2023-02-28T02:53:44;35.50;;;18.60;;
3177;SDS011;38141;42.666;23.344;2023-02-28T02:56:16;34.17;;;17.97;;
3177;SDS011;38141;42.666;23.344;2023-02-28T02:58:47;33.47;;;18.10;;
3177;SDS011;38141;42.666;23.344;2023-02-28T03:01:18;38.70;;;18.50;;
3177;SDS011;38141;42.666;23.344;2023-02-28T03:03:54;35.90;;;18.70;;
3177;SDS011;38141;42.666;23.344;2023-02-28T03:06:24;37.60;;;18.50;;
3177;SDS011;38141;42.666;23.344;2023-02-28T03:08:52;30.53;;;17.10;;
3177;SDS011;38141;42.666;23.344;2023-02-28T03:11:19;36.80;;;19.40;;
3177;SDS011;38141;42.666;23.344;2023-02-28T03:13:50;36.30;;;18.20;;
3177;SDS011;38141;42.666;23.344;2023-02-28T03:19:32;36.90;;;18.73;;
3177;SDS011;38141;42.666;23.344;2023-02-28T03:22:10;40.17;;;20.70;;
3177;SDS011;38141;42.666;23.344;2023-02-28T03:24:47;41.23;;;20.10;;
3177;SDS011;38141;42.666;23.344;2023-02-28T03:27:20;43.97;;;21.80;;
3177;SDS011;38141;42.666;23.344;2023-02-28T03:29:55;41.13;;;20.83;;
3177;SDS011;38141;42.666;23.344;2023-02-28T03:32:28;43.87;;;21.30;;
3177;SDS011;38141;42.666;23.344;2023-02-28T03:35:00;44.60;;;20.97;;
3177;SDS011;38141;42.666;23.344;2023-02-28T03:37:34;40.33;;;19.90;;
3177;SDS011;38141;42.666;23.344;2023-02-28T03:40:05;42.40;;;20.50;;
3177;SDS011;38141;42.666;23.344;2023-02-28T03:42:38;45.80;;;22.33;;
3177;SDS011;38141;42.666;23.344;2023-02-28T03:45:11;39.17;;;19.50;;
3177;SDS011;38141;42.666;23.344;2023-02-28T03:47:40;44.93;;;20.33;;
3177;SDS011;38141;42.666;23.344;2023-02-28T03:50:12;39.90;;;19.43;;
3177;SDS011;38141;42.666;23.344;2023-02-28T03:52:46;40.73;;;20.37;;
3177;SDS011;38141;42.666;23.344;2023-02-28T03:55:16;43.60;;;20.70;;
3177;SDS011;38141;42.666;23.344;2023-02-28T03:57:45;46.70;;;22.10;;
3177;SDS011;38141;42.666;23.344;2023-02-28T04:00:28;46.20;;;21.37;;
3177;SDS011;38141;42.666;23.344;2023-02-28T04:02:58;50.77;;;24.13;;
3177;SDS011;38141;42.666;23.344;2023-02-28T04:05:25;52.10;;;24.10;;
3177;SDS011;38141;42.666;23.344;2023-02-28T04:07:54;55.93;;;23.57;;
3177;SDS011;38141;42.666;23.344;2023-02-28T04:10:30;53.80;;;24.30;;
3177;SDS011;38141;42.666;23.344;2023-02-28T04:12:57;50.17;;;23.87;;
3177;SDS011;38141;42.666;23.344;2023-02-28T04:15:23;46.07;;;21.57;;
3177;SDS011;38141;42.666;23.344;2023-02-28T04:17:52;44.23;;;20.97;;
3177;SDS011;38141;42.666;23.344;2023-02-28T04:20:19;43.67;;;20.50;;
3177;SDS011;38141;42.666;23.344;2023-02-28T04:22:46;44.03;;;19.70;;
3177;SDS011;38141;42.666;23.344;2023-02-28T04:25:14;42.83;;;19.07;;
3177;SDS011;38141;42.666;23.344;2023-02-28T04:27:41;47.30;;;19.33;;
3177;SDS011;38141;42.666;23.344;2023-02-28T04:30:10;50.00;;;20.60;;
3177;SDS011;38141;42.666;23.344;2023-02-28T04:32:37;45.53;;;21.67;;
3177;SDS011;38141;42.666;23.344;2023-02-28T04:35:04;48.10;;;21.63;;
3177;SDS011;38141;42.666;23.344;2023-02-28T04:37:32;47.73;;;20.67;;
3177;SDS011;38141;42.666;23.344;2023-02-28T04:39:59;46.40;;;20.30;;
3177;SDS011;38141;42.666;23.344;2023-02-28T04:42:29;40.70;;;20.53;;
3177;SDS011;38141;42.666;23.344;2023-02-28T04:45:00;46.53;;;21.20;;
3177;SDS011;38141;42.666;23.344;2023-02-28T04:47:27;41.37;;;19.97;;
3177;SDS011;38141;42.666;23.344;2023-02-28T04:49:54;45.90;;;22.93;;
3177;SDS011;38141;42.666;23.344;2023-02-28T04:52:21;49.93;;;21.93;;
3177;SDS011;38141;42.666;23.344;2023-02-28T04:54:48;49.17;;;23.40;;
3177;SDS011;38141;42.666;23.344;2023-02-28T04:57:15;48.07;;;22.77;;
3177;SDS011;38141;42.666;23.344;2023-02-28T04:59:43;57.13;;;24.37;;
3177;SDS011;38141;42.666;23.344;2023-02-28T05:02:10;52.20;;;24.00;;
3177;SDS011;38141;42.666;23.344;2023-02-28T05:04:37;50.63;;;23.87;;
3177;SDS011;38141;42.666;23.344;2023-02-28T05:07:04;52.60;;;25.13;;
3177;SDS011;38141;42.666;23.344;2023-02-28T05:09:30;53.03;;;24.10;;
3177;SDS011;38141;42.666;23.344;2023-02-28T05:11:59;52.43;;;24.10;;
3177;SDS011;38141;42.666;23.344;2023-02-28T05:14:26;54.10;;;24.03;;
3177;SDS011;38141;42.666;23.344;2023-02-28T05:16:54;55.07;;;25.87;;
3177;SDS011;38141;42.666;23.344;2023-02-28T05:19:22;52.27;;;23.40;;
3177;SDS011;38141;42.666;23.344;2023-02-28T05:21:52;47.67;;;22.37;;
3177;SDS011;38141;42.666;23.344;2023-02-28T05:24:20;50.23;;;22.50;;
3177;SDS011;38141;42.666;23.344;2023-02-28T05:26:49;58.77;;;25.13;;
3177;SDS011;38141;42.666;23.344;2023-02-28T05:29:17;56.97;;;26.13;;
3177;SDS011;38141;42.666;23.344;2023-02-28T05:31:44;54.03;;;25.40;;
3177;SDS011;38141;42.666;23.344;2023-02-28T05:34:12;60.27;;;26.60;;
3177;SDS011;38141;42.666;23.344;2023-02-28T05:36:40;63.57;;;27.23;;
3177;SDS011;38141;42.666;23.344;2023-02-28T05:39:07;56.77;;;25.90;;
3177;SDS011;38141;42.666;23.344;2023-02-28T05:41:38;56.53;;;26.70;;
3177;SDS011;38141;42.666;23.344;2023-02-28T05:44:05;56.70;;;25.97;;
3177;SDS011;38141;42.666;23.344;2023-02-28T05:46:32;56.43;;;25.90;;
3177;SDS011;38141;42.666;23.344;2023-02-28T05:48:59;58.93;;;26.23;;
3177;SDS011;38141;42.666;23.344;2023-02-28T05:51:27;57.80;;;26.70;;
3177;SDS011;38141;42.666;23.344;2023-02-28T05:53:54;53.73;;;26.20;;
3177;SDS011;38141;42.666;23.344;2023-02-28T05:56:25;59.03;;;26.00;;
3177;SDS011;38141;42.666;23.344;2023-02-28T05:58:52;58.83;;;26.50;;
3177;SDS011;38141;42.666;23.344;2023-02-28T06:01:20;56.10;;;27.40;;
3177;SDS011;38141;42.666;23.344;2023-02-28T06:03:49;56.80;;;27.97;;
3177;SDS011;38141;42.666;23.344;2023-02-28T06:06:16;58.83;;;26.60;;
3177;SDS011;38141;42.666;23.344;2023-02-28T06:08:45;58.37;;;27.77;;
3177;SDS011;38141;42.666;23.344;2023-02-28T06:11:12;64.70;;;29.80;;
3177;SDS011;38141;42.666;23.344;2023-02-28T06:13:40;62.80;;;29.80;;
3177;SDS011;38141;42.666;23.344;2023-02-28T06:16:07;66.57;;;30.33;;
3177;SDS011;38141;42.666;23.344;2023-02-28T06:18:36;58.87;;;28.77;;
3177;SDS011;38141;42.666;23.344;2023-02-28T06:21:03;64.60;;;29.70;;
3177;SDS011;38141;42.666;23.344;2023-02-28T06:23:30;58.33;;;28.23;;
3177;SDS011;38141;42.666;23.344;2023-02-28T06:25:58;60.40;;;26.87;;
3177;SDS011;38141;42.666;23.344;2023-02-28T06:28:25;58.97;;;28.30;;
3177;SDS011;38141;42.666;23.344;2023-02-28T06:30:52;56.30;;;27.77;;
3177;SDS011;38141;42.666;23.344;2023-02-28T06:33:19;57.43;;;27.63;;
3177;SDS011;38141;42.666;23.344;2023-02-28T06:35:46;57.73;;;28.70;;
3177;SDS011;38141;42.666;23.344;2023-02-28T06:38:15;59.97;;;28.13;;
3177;SDS011;38141;42.666;23.344;2023-02-28T06:40:43;57.03;;;29.07;;
3177;SDS011;38141;42.666;23.344;2023-02-28T06:43:11;51.73;;;26.50;;
3177;SDS011;38141;42.666;23.344;2023-02-28T06:45:41;49.67;;;26.27;;
3177;SDS011;38141;42.666;23.344;2023-02-28T06:48:08;56.90;;;26.40;;
3177;SDS011;38141;42.666;23.344;2023-02-28T06:50:35;56.67;;;27.83;;
3177;SDS011;38141;42.666;23.344;2023-02-28T06:53:02;51.83;;;25.47;;
3177;SDS011;38141;42.666;23.344;2023-02-28T06:55:29;44.43;;;24.20;;
3177;SDS011;38141;42.666;23.344;2023-02-28T06:57:56;48.90;;;25.03;;
3177;SDS011;38141;42.666;23.344;2023-02-28T07:00:25;54.93;;;26.30;;
3177;SDS011;38141;42.666;23.344;2023-02-28T07:02:52;61.27;;;26.27;;
3177;SDS011;38141;42.666;23.344;2023-02-28T07:05:20;49.10;;;25.10;;
3177;SDS011;38141;42.666;23.344;2023-02-28T07:07:46;54.27;;;28.13;;
3177;SDS011;38141;42.666;23.344;2023-02-28T07:10:13;53.97;;;27.03;;
3177;SDS011;38141;42.666;23.344;2023-02-28T07:12:42;48.37;;;25.37;;
3177;SDS011;38141;42.666;23.344;2023-02-28T07:15:09;51.93;;;25.20;;
3177;SDS011;38141;42.666;23.344;2023-02-28T07:17:38;45.70;;;25.07;;
3177;SDS011;38141;42.666;23.344;2023-02-28T07:20:05;52.43;;;25.07;;
3177;SDS011;38141;42.666;23.344;2023-02-28T07:22:35;47.30;;;23.73;;
3177;SDS011;38141;42.666;23.344;2023-02-28T07:25:02;54.07;;;28.47;;
3177;SDS011;38141;42.666;23.344;2023-02-28T07:27:28;49.50;;;25.90;;
3177;SDS011;38141;42.666;23.344;2023-02-28T07:29:55;48.03;;;24.90;;
3177;SDS011;38141;42.666;23.344;2023-02-28T07:32:22;54.67;;;26.90;;
3177;SDS011;38141;42.666;23.344;2023-02-28T07:34:51;47.27;;;25.13;;
3177;SDS011;38141;42.666;23.344;2023-02-28T07:37:18;50.93;;;24.13;;
3177;SDS011;38141;42.666;23.344;2023-02-28T07:39:45;43.20;;;23.10;;
3177;SDS011;38141;42.666;23.344;2023-02-28T07:42:12;47.50;;;22.63;;
3177;SDS011;38141;42.666;23.344;2023-02-28T07:44:38;41.87;;;23.13;;
3177;SDS011;38141;42.666;23.344;2023-02-28T07:47:06;41.53;;;22.20;;
3177;SDS011;38141;42.666;23.344;2023-02-28T07:49:34;42.80;;;22.90;;
3177;SDS011;38141;42.666;23.344;2023-02-28T07:52:02;42.57;;;22.63;;
3177;SDS011;38141;42.666;23.344;2023-02-28T07:54:30;42.30;;;23.20;;
3177;SDS011;38141;42.666;23.344;2023-02-28T07:56:57;39.87;;;21.80;;
3177;SDS011;38141;42.666;23.344;2023-02-28T07:59:23;40.13;;;22.50;;
3177;SDS011;38141;42.666;23.344;2023-02-28T08:01:50;44.97;;;22.80;;
3177;SDS011;38141;42.666;23.344;2023-02-28T08:04:17;40.97;;;22.37;;
3177;SDS011;38141;42.666;23.344;2023-02-28T08:06:45;51.83;;;27.77;;
3177;SDS011;38141;42.666;23.344;2023-02-28T08:09:13;42.73;;;22.97;;
3177;SDS011;38141;42.666;23.344;2023-02-28T08:11:40;45.83;;;21.83;;
3177;SDS011;38141;42.666;23.344;2023-02-28T08:14:07;42.07;;;23.17;;
3177;SDS011;38141;42.666;23.344;2023-02-28T08:16:34;41.47;;;22.67;;
3177;SDS011;38141;42.666;23.344;2023-02-28T08:19:00;38.00;;;21.60;;
3177;SDS011;38141;42.666;23.344;2023-02-28T08:21:27;41.43;;;23.27;;
3177;SDS011;38141;42.666;23.344;2023-02-28T08:23:54;42.43;;;21.77;;
3177;SDS011;38141;42.666;23.344;2023-02-28T08:28:53;40.80;;;22.10;;
3177;SDS011;38141;42.666;23.344;2023-02-28T08:34:06;39.60;;;21.37;;
3177;SDS011;38141;42.666;23.344;2023-02-28T08:36:33;42.17;;;22.20;;
3177;SDS011;38141;42.666;23.344;2023-02-28T08:39:06;39.00;;;22.73;;
3177;SDS011;38141;42.666;23.344;2023-02-28T08:41:35;46.23;;;23.10;;
3177;SDS011;38141;42.666;23.344;2023-02-28T08:44:02;42.60;;;22.93;;
3177;SDS011;38141;42.666;23.344;2023-02-28T08:46:29;39.90;;;22.33;;
3177;SDS011;38141;42.666;23.344;2023-02-28T08:48:56;42.60;;;22.47;;
3177;SDS011;38141;42.666;23.344;2023-02-28T08:51:25;45.43;;;22.53;;
3177;SDS011;38141;42.666;23.344;2023-02-28T08:53:52;40.43;;;22.17;;
3177;SDS011;38141;42.666;23.344;2023-02-28T08:56:20;41.93;;;22.70;;
3177;SDS011;38141;42.666;23.344;2023-02-28T08:58:49;42.67;;;24.37;;
3177;SDS011;38141;42.666;23.344;2023-02-28T09:01:17;40.43;;;24.77;;
3177;SDS011;38141;42.666;23.344;2023-02-28T09:03:46;44.27;;;24.23;;
3177;SDS011;38141;42.666;23.344;2023-02-28T09:06:14;41.43;;;23.37;;
3177;SDS011;38141;42.666;23.344;2023-02-28T09:08:42;40.67;;;22.93;;
3177;SDS011;38141;42.666;23.344;2023-02-28T09:11:09;44.57;;;24.20;;
3177;SDS011;38141;42.666;23.344;2023-02-28T09:13:37;47.63;;;24.00;;
3177;SDS011;38141;42.666;23.344;2023-02-28T09:16:08;36.13;;;23.13;;
3177;SDS011;38141;42.666;23.344;2023-02-28T09:18:37;48.27;;;24.07;;
3177;SDS011;38141;42.666;23.344;2023-02-28T09:21:05;41.23;;;24.13;;
3177;SDS011;38141;42.666;23.344;2023-02-28T09:23:34;40.27;;;22.53;;
3177;SDS011;38141;42.666;23.344;2023-02-28T09:26:03;40.90;;;21.80;;
3177;SDS011;38141;42.666;23.344;2023-02-28T09:28:31;42.10;;;22.90;;
3177;SDS011;38141;42.666;23.344;2023-02-28T09:30:57;53.60;;;22.07;;
3177;SDS011;38141;42.666;23.344;2023-02-28T09:33:26;46.30;;;24.60;;
3177;SDS011;38141;42.666;23.344;2023-02-28T09:35:57;46.33;;;24.33;;
3177;SDS011;38141;42.666;23.344;2023-02-28T09:38:25;31.13;;;17.00;;
3177;SDS011;38141;42.666;23.344;2023-02-28T09:40:54;35.53;;;17.07;;
3177;SDS011;38141;42.666;23.344;2023-02-28T09:43:25;30.43;;;15.93;;
3177;SDS011;38141;42.666;23.344;2023-02-28T09:45:56;27.80;;;15.40;;
3177;SDS011;38141;42.666;23.344;2023-02-28T09:48:32;29.03;;;14.83;;
3177;SDS011;38141;42.666;23.344;2023-02-28T09:51:11;29.10;;;14.07;;
3177;SDS011;38141;42.666;23.344;2023-02-28T09:53:50;39.23;;;17.47;;
3177;SDS011;38141;42.666;23.344;2023-02-28T09:56:18;26.43;;;14.93;;
3177;SDS011;38141;42.666;23.344;2023-02-28T09:58:58;33.23;;;15.10;;
3177;SDS011;38141;42.666;23.344;2023-02-28T10:01:31;23.57;;;13.97;;
3177;SDS011;38141;42.666;23.344;2023-02-28T10:04:08;30.03;;;13.87;;
3177;SDS011;38141;42.666;23.344;2023-02-28T10:06:42;27.63;;;14.10;;
3177;SDS011;38141;42.666;23.344;2023-02-28T10:09:13;28.10;;;14.27;;
3177;SDS011;38141;42.666;23.344;2023-02-28T10:11:45;30.60;;;13.80;;
3177;SDS011;38141;42.666;23.344;2023-02-28T10:14:16;27.87;;;15.70;;
3177;SDS011;38141;42.666;23.344;2023-02-28T10:16:46;30.10;;;13.53;;
3177;SDS011;38141;42.666;23.344;2023-02-28T10:19:20;22.93;;;12.13;;
3177;SDS011;38141;42.666;23.344;2023-02-28T10:21:53;27.20;;;14.03;;
3177;SDS011;38141;42.666;23.344;2023-02-28T10:24:28;29.23;;;13.63;;
3177;SDS011;38141;42.666;23.344;2023-02-28T10:26:59;22.70;;;12.57;;
3177;SDS011;38141;42.666;23.344;2023-02-28T10:29:32;28.83;;;12.63;;
3177;SDS011;38141;42.666;23.344;2023-02-28T10:32:00;25.97;;;13.20;;
3177;SDS011;38141;42.666;23.344;2023-02-28T10:34:29;22.93;;;11.67;;
3177;SDS011;38141;42.666;23.344;2023-02-28T10:36:56;27.60;;;12.30;;
3177;SDS011;38141;42.666;23.344;2023-02-28T10:39:39;31.63;;;14.50;;
3177;SDS011;38141;42.666;23.344;2023-02-28T10:42:18;23.00;;;12.70;;
3177;SDS011;38141;42.666;23.344;2023-02-28T10:44:54;26.77;;;12.53;;
3177;SDS011;38141;42.666;23.344;2023-02-28T10:47:33;29.37;;;12.83;;
3177;SDS011;38141;42.666;23.344;2023-02-28T10:59:35;30.20;;;13.50;;
3177;SDS011;38141;42.666;23.344;2023-02-28T11:02:08;23.20;;;11.30;;
3177;SDS011;38141;42.666;23.344;2023-02-28T11:04:56;36.63;;;13.90;;
3177;SDS011;38141;42.666;23.344;2023-02-28T11:07:23;28.83;;;12.37;;
3177;SDS011;38141;42.666;23.344;2023-02-28T11:09:53;27.53;;;12.47;;
3177;SDS011;38141;42.666;23.344;2023-02-28T11:12:23;27.63;;;11.90;;
3177;SDS011;38141;42.666;23.344;2023-02-28T11:14:54;24.67;;;11.67;;
3177;SDS011;38141;42.666;23.344;2023-02-28T11:17:25;25.80;;;11.63;;
3177;SDS011;38141;42.666;23.344;2023-02-28T11:19:54;24.63;;;11.93;;
3177;SDS011;38141;42.666;23.344;2023-02-28T11:22:24;24.17;;;12.60;;
3177;SDS011;38141;42.666;23.344;2023-02-28T11:24:59;25.47;;;12.70;;
3177;SDS011;38141;42.666;23.344;2023-02-28T11:27:46;24.67;;;12.03;;
3177;SDS011;38141;42.666;23.344;2023-02-28T11:30:25;22.20;;;10.87;;
3177;SDS011;38141;42.666;23.344;2023-02-28T11:32:54;21.97;;;11.33;;
3177;SDS011;38141;42.666;23.344;2023-02-28T11:35:23;28.40;;;12.73;;
3177;SDS011;38141;42.666;23.344;2023-02-28T11:37:52;24.67;;;13.50;;
3177;SDS011;38141;42.666;23.344;2023-02-28T11:40:21;24.73;;;11.97;;
3177;SDS011;38141;42.666;23.344;2023-02-28T11:42:59;28.53;;;12.47;;
3177;SDS011;38141;42.666;23.344;2023-02-28T11:45:38;26.43;;;12.40;;
3177;SDS011;38141;42.666;23.344;2023-02-28T11:48:13;25.13;;;12.90;;
3177;SDS011;38141;42.666;23.344;2023-02-28T11:50:49;28.83;;;13.77;;
3177;SDS011;38141;42.666;23.344;2023-02-28T11:53:39;25.27;;;12.60;;
3177;SDS011;38141;42.666;23.344;2023-02-28T11:56:29;25.77;;;12.20;;
3177;SDS011;38141;42.666;23.344;2023-02-28T12:02:05;27.50;;;12.03;;
3177;SDS011;38141;42.666;23.344;2023-02-28T12:04:52;24.37;;;11.70;;
3177;SDS011;38141;42.666;23.344;2023-02-28T12:07:30;28.90;;;14.23;;
3177;SDS011;38141;42.666;23.344;2023-02-28T12:10:04;35.70;;;15.67;;
3177;SDS011;38141;42.666;23.344;2023-02-28T12:12:43;22.53;;;12.90;;
3177;SDS011;38141;42.666;23.344;2023-02-28T12:15:24;23.97;;;12.70;;
3177;SDS011;38141;42.666;23.344;2023-02-28T12:18:05;24.40;;;11.83;;
3177;SDS011;38141;42.666;23.344;2023-02-28T12:20:45;24.77;;;12.60;;
3177;SDS011;38141;42.666;23.344;2023-02-28T12:23:36;24.13;;;11.90;;
3177;SDS011;38141;42.666;23.344;2023-02-28T12:26:17;25.20;;;13.20;;
3177;SDS011;38141;42.666;23.344;2023-02-28T12:28:50;30.83;;;13.10;;
3177;SDS011;38141;42.666;23.344;2023-02-28T12:31:22;28.47;;;14.10;;
3177;SDS011;38141;42.666;23.344;2023-02-28T12:33:53;23.97;;;13.70;;
3177;SDS011;38141;42.666;23.344;2023-02-28T12:36:29;21.00;;;12.60;;
3177;SDS011;38141;42.666;23.344;2023-02-28T12:38:56;24.83;;;12.77;;
3177;SDS011;38141;42.666;23.344;2023-02-28T12:41:29;22.33;;;12.90;;
3177;SDS011;38141;42.666;23.344;2023-02-28T12:44:03;35.00;;;11.90;;
3177;SDS011;38141;42.666;23.344;2023-02-28T12:46:37;25.37;;;13.57;;
3177;SDS011;38141;42.666;23.344;2023-02-28T12:49:08;25.20;;;12.90;;
3177;SDS011;38141;42.666;23.344;2023-02-28T12:51:39;28.17;;;12.83;;
3177;SDS011;38141;42.666;23.344;2023-02-28T12:54:09;25.23;;;12.97;;
3177;SDS011;38141;42.666;23.344;2023-02-28T12:56:44;20.73;;;11.73;;
3177;SDS011;38141;42.666;23.344;2023-02-28T12:59:17;26.03;;;12.50;;
3177;SDS011;38141;42.666;23.344;2023-02-28T13:02:00;27.07;;;13.10;;
3177;SDS011;38141;42.666;23.344;2023-02-28T13:04:45;20.30;;;11.20;;
3177;SDS011;38141;42.666;23.344;2023-02-28T13:10:37;25.67;;;13.03;;
3177;SDS011;38141;42.666;23.344;2023-02-28T13:13:05;25.03;;;12.73;;
3177;SDS011;38141;42.666;23.344;2023-02-28T13:15:32;23.27;;;12.00;;
3177;SDS011;38141;42.666;23.344;2023-02-28T13:18:20;25.23;;;12.50;;
3177;SDS011;38141;42.666;23.344;2023-02-28T13:20:54;27.30;;;13.10;;
3177;SDS011;38141;42.666;23.344;2023-02-28T13:26:23;21.77;;;11.20;;
3177;SDS011;38141;42.666;23.344;2023-02-28T13:29:37;23.23;;;10.23;;
3177;SDS011;38141;42.666;23.344;2023-02-28T13:38:15;23.43;;;11.50;;
3177;SDS011;38141;42.666;23.344;2023-02-28T13:41:09;20.13;;;10.33;;
3177;SDS011;38141;42.666;23.344;2023-02-28T13:44:21;30.23;;;10.80;;
3177;SDS011;38141;42.666;23.344;2023-02-28T13:49:45;16.93;;;10.00;;
3177;SDS011;38141;42.666;23.344;2023-02-28T13:52:14;29.03;;;12.27;;
3177;SDS011;38141;42.666;23.344;2023-02-28T13:57:50;21.93;;;10.73;;
3177;SDS011;38141;42.666;23.344;2023-02-28T14:00:28;19.93;;;9.27;;
3177;SDS011;38141;42.666;23.344;2023-02-28T14:06:09;21.07;;;9.80;;
3177;SDS011;38141;42.666;23.344;2023-02-28T14:08:50;21.93;;;9.93;;
3177;SDS011;38141;42.666;23.344;2023-02-28T14:11:25;28.97;;;10.13;;
3177;SDS011;38141;42.666;23.344;2023-02-28T14:13:54;21.90;;;10.07;;
3177;SDS011;38141;42.666;23.344;2023-02-28T14:16:21;22.97;;;10.70;;
3177;SDS011;38141;42.666;23.344;2023-02-28T14:18:54;25.20;;;11.70;;
3177;SDS011;38141;42.666;23.344;2023-02-28T14:21:24;24.57;;;11.30;;
3177;SDS011;38141;42.666;23.344;2023-02-28T14:30:24;26.90;;;11.43;;
3177;SDS011;38141;42.666;23.344;2023-02-28T14:33:08;30.57;;;12.50;;
3177;SDS011;38141;42.666;23.344;2023-02-28T14:38:44;20.23;;;10.47;;
3177;SDS011;38141;42.666;23.344;2023-02-28T14:41:18;25.80;;;11.00;;
3177;SDS011;38141;42.666;23.344;2023-02-28T14:43:48;21.60;;;10.97;;
3177;SDS011;38141;42.666;23.344;2023-02-28T14:46:20;22.80;;;10.97;;
3177;SDS011;38141;42.666;23.344;2023-02-28T14:48:49;22.83;;;10.77;;
3177;SDS011;38141;42.666;23.344;2023-02-28T14:51:20;28.87;;;12.57;;
3177;SDS011;38141;42.666;23.344;2023-02-28T14:53:48;24.67;;;9.77;;
3177;SDS011;38141;42.666;23.344;2023-02-28T14:56:26;23.93;;;10.03;;
3177;SDS011;38141;42.666;23.344;2023-02-28T14:58:56;17.70;;;9.70;;
3177;SDS011;38141;42.666;23.344;2023-02-28T15:01:24;17.90;;;9.07;;
3177;SDS011;38141;42.666;23.344;2023-02-28T15:04:01;25.00;;;10.97;;
3177;SDS011;38141;42.666;23.344;2023-02-28T15:06:31;21.43;;;11.03;;
3177;SDS011;38141;42.666;23.344;2023-02-28T15:09:07;26.77;;;9.50;;
3177;SDS011;38141;42.666;23.344;2023-02-28T15:11:42;24.27;;;10.87;;
3177;SDS011;38141;42.666;23.344;2023-02-28T15:14:16;24.00;;;12.40;;
3177;SDS011;38141;42.666;23.344;2023-02-28T15:16:47;18.73;;;11.10;;
3177;SDS011;38141;42.666;23.344;2023-02-28T15:19:20;18.93;;;9.17;;
3177;SDS011;38141;42.666;23.344;2023-02-28T15:21:50;23.70;;;10.53;;
3177;SDS011;38141;42.666;23.344;2023-02-28T15:24:26;21.00;;;9.47;;
3177;SDS011;38141;42.666;23.344;2023-02-28T15:27:04;20.83;;;9.97;;
3177;SDS011;38141;42.666;23.344;2023-02-28T15:29:36;20.10;;;9.90;;
3177;SDS011;38141;42.666;23.344;2023-02-28T15:32:20;18.83;;;9.83;;
3177;SDS011;38141;42.666;23.344;2023-02-28T15:34:51;20.77;;;10.07;;
3177;SDS011;38141;42.666;23.344;2023-02-28T15:37:26;15.70;;;9.00;;
3177;SDS011;38141;42.666;23.344;2023-02-28T15:39:56;16.87;;;8.20;;
3177;SDS011;38141;42.666;23.344;2023-02-28T15:42:29;25.27;;;10.00;;
3177;SDS011;38141;42.666;23.344;2023-02-28T15:44:56;21.07;;;10.10;;
3177;SDS011;38141;42.666;23.344;2023-02-28T15:47:25;19.87;;;10.60;;